Time;durP1;ratioP1;P1;durP2;ratioP2;P2;SDS_P1;SDS_P2;PMS_P1;PMS_P2;Temp;Humidity;BMP_temperature;BMP_pressure;BME280_temperature;BME280_humidity;BME280_pressure;Samples;Min_cycle;Max_cycle;Signal;HPM_P1;HPM_P2
2022/12/05 00:01:58;;;;;;;53.13;26.70;;;2.10;99.90;;;;;;5061142;28;20221;-60
2022/12/05 00:04:25;;;;;;;59.10;28.83;;;2.10;99.90;;;;;;5061095;28;20198;-60
2022/12/05 00:06:52;;;;;;;45.60;26.38;;;2.10;99.90;;;;;;5057501;28;20543;-61
2022/12/05 00:09:18;;;;;;;62.00;28.23;;;2.10;99.90;;;;;;5056660;28;20764;-61
2022/12/05 00:11:45;;;;;;;53.17;27.17;;;2.10;99.90;;;;;;5058095;28;20222;-61
2022/12/05 00:14:14;;;;;;;59.17;27.05;;;2.10;99.90;;;;;;5058400;28;20221;-61
2022/12/05 00:16:43;;;;;;;52.88;26.33;;;2.20;99.90;;;;;;5057354;28;20693;-60
2022/12/05 00:19:13;;;;;;;49.15;26.15;;;2.20;99.90;;;;;;5056568;28;20202;-60
2022/12/05 00:21:40;;;;;;;60.83;25.42;;;2.20;99.90;;;;;;5055755;28;20225;-59
2022/12/05 00:24:09;;;;;;;46.67;25.08;;;2.20;99.90;;;;;;5056416;28;20209;-61
2022/12/05 00:26:36;;;;;;;56.47;27.63;;;2.20;99.90;;;;;;5059834;28;20690;-61
2022/12/05 00:29:03;;;;;;;48.45;26.85;;;2.20;99.90;;;;;;5060722;28;20201;-60
2022/12/05 00:31:32;;;;;;;52.72;27.35;;;2.20;99.90;;;;;;5061474;28;20229;-62
2022/12/05 00:34:00;;;;;;;55.20;26.45;;;2.20;99.90;;;;;;5061800;28;20276;-61
2022/12/05 00:36:29;;;;;;;52.22;26.10;;;2.20;99.90;;;;;;5061017;28;20197;-60
2022/12/05 00:38:58;;;;;;;37.78;23.70;;;2.20;99.90;;;;;;5060156;28;20245;-62
2022/12/05 00:41:27;;;;;;;54.50;25.88;;;2.20;99.90;;;;;;5060730;28;20225;-61
2022/12/05 00:43:55;;;;;;;49.00;25.27;;;2.20;99.90;;;;;;5061180;28;20202;-61
2022/12/05 00:46:24;;;;;;;41.83;24.65;;;2.20;99.90;;;;;;5059364;28;20204;-62
2022/12/05 00:48:54;;;;;;;57.22;26.77;;;2.20;99.90;;;;;;5060330;28;20201;-62
2022/12/05 00:51:23;;;;;;;53.33;26.10;;;2.20;99.90;;;;;;5059950;28;20228;-61
2022/12/05 00:53:50;;;;;;;45.97;24.55;;;2.20;99.90;;;;;;5059306;28;20210;-60
2022/12/05 00:56:18;;;;;;;54.10;25.95;;;2.20;99.90;;;;;;5059470;28;20218;-60
2022/12/05 00:58:45;;;;;;;47.05;25.13;;;2.20;99.90;;;;;;5059033;28;20214;-61
2022/12/05 01:01:14;;;;;;;43.90;23.80;;;2.20;99.90;;;;;;5058750;28;20229;-60
2022/12/05 01:03:42;;;;;;;47.05;24.38;;;2.20;99.90;;;;;;5058270;28;20206;-61
2022/12/05 01:06:10;;;;;;;47.65;24.88;;;2.20;99.90;;;;;;5058019;28;20206;-60
2022/12/05 01:08:37;;;;;;;44.72;25.40;;;2.20;99.90;;;;;;5058604;28;20213;-60
2022/12/05 01:11:06;;;;;;;47.33;25.05;;;2.20;99.90;;;;;;5057784;28;20205;-60
2022/12/05 01:13:34;;;;;;;44.03;23.55;;;2.20;99.90;;;;;;5057899;28;20576;-61
2022/12/05 01:16:01;;;;;;;58.17;25.55;;;2.20;99.90;;;;;;5058702;28;20218;-61
2022/12/05 01:18:28;;;;;;;42.78;23.90;;;2.20;99.90;;;;;;5063518;28;20569;-61
2022/12/05 01:20:55;;;;;;;49.40;24.27;;;2.20;99.90;;;;;;5058060;28;20692;-61
2022/12/05 01:23:23;;;;;;;45.95;25.55;;;2.20;99.90;;;;;;5058265;28;20205;-61
2022/12/05 01:25:52;;;;;;;48.53;24.45;;;2.20;99.90;;;;;;5057927;28;20677;-62
2022/12/05 01:28:19;;;;;;;37.10;24.02;;;2.30;99.90;;;;;;5058231;28;20205;-61
2022/12/05 01:30:49;;;;;;;48.60;23.48;;;2.30;99.90;;;;;;5060821;28;20202;-60
2022/12/05 01:33:16;;;;;;;44.83;23.67;;;2.30;99.90;;;;;;5056484;28;20234;-61
2022/12/05 01:35:44;;;;;;;47.83;24.42;;;2.30;99.90;;;;;;5056215;28;20228;-60
2022/12/05 01:38:12;;;;;;;42.60;22.95;;;2.30;99.90;;;;;;5055526;28;20653;-61
2022/12/05 01:40:41;;;;;;;41.92;22.13;;;2.30;99.90;;;;;;5056199;28;20677;-60
2022/12/05 01:43:14;;;;;;;37.25;20.90;;;2.30;99.90;;;;;;5056493;28;20217;-61
2022/12/05 01:45:43;;;;;;;41.85;23.35;;;2.30;99.90;;;;;;5056198;28;20198;-62
2022/12/05 01:48:13;;;;;;;44.60;23.38;;;2.30;99.90;;;;;;5056805;28;20214;-61
2022/12/05 01:50:41;;;;;;;40.78;22.05;;;2.30;99.90;;;;;;5056388;28;20208;-62
2022/12/05 01:53:07;;;;;;;43.40;23.08;;;2.20;99.90;;;;;;5055609;28;20217;-61
2022/12/05 01:55:36;;;;;;;39.95;20.95;;;2.30;99.90;;;;;;5055822;28;20220;-61
2022/12/05 01:58:06;;;;;;;37.75;20.77;;;2.30;99.90;;;;;;5056453;28;20209;-61
2022/12/05 02:00:33;;;;;;;42.83;21.95;;;2.30;99.90;;;;;;5055932;28;20193;-62
2022/12/05 02:03:04;;;;;;;35.22;20.95;;;2.30;99.90;;;;;;5055684;28;20226;-62
2022/12/05 02:05:32;;;;;;;37.95;20.77;;;2.30;99.90;;;;;;5055594;28;20644;-61
2022/12/05 02:08:02;;;;;;;42.03;20.50;;;2.30;99.90;;;;;;5055804;28;20205;-61
2022/12/05 02:10:33;;;;;;;37.40;20.15;;;2.30;99.90;;;;;;5061039;28;20201;-61
2022/12/05 02:13:13;;;;;;;40.83;20.85;;;2.30;99.90;;;;;;5064615;28;20232;-60
2022/12/05 02:15:45;;;;;;;34.70;20.73;;;2.30;99.90;;;;;;5061775;28;20202;-61
2022/12/05 02:18:25;;;;;;;36.72;19.98;;;2.30;99.90;;;;;;5061246;28;20190;-61
2022/12/05 02:21:06;;;;;;;39.85;22.20;;;2.30;99.90;;;;;;5061545;28;20733;-61
2022/12/05 02:23:53;;;;;;;36.20;19.63;;;2.30;99.90;;;;;;5055606;28;20186;-61
2022/12/05 02:26:46;;;;;;;34.80;19.75;;;2.30;99.90;;;;;;5056027;28;20186;-61
2022/12/05 02:29:32;;;;;;;33.55;20.30;;;2.30;99.90;;;;;;5056202;28;20190;-62
2022/12/05 02:32:07;;;;;;;34.63;20.70;;;2.30;99.90;;;;;;5057951;28;20229;-60
2022/12/05 02:34:44;;;;;;;38.05;21.73;;;2.30;99.90;;;;;;5058365;28;20196;-61
2022/12/05 02:37:18;;;;;;;40.20;21.90;;;2.30;99.90;;;;;;5055845;28;20556;-61
2022/12/05 02:39:51;;;;;;;41.92;21.00;;;2.20;99.90;;;;;;5055154;28;20209;-62
2022/12/05 02:42:27;;;;;;;41.65;21.48;;;2.20;99.90;;;;;;5054995;28;20751;-61
2022/12/05 02:44:59;;;;;;;32.47;18.45;;;2.20;99.90;;;;;;5061166;28;20550;-61
2022/12/05 02:47:31;;;;;;;34.15;20.23;;;2.20;99.90;;;;;;5069696;28;20186;-61
2022/12/05 02:49:59;;;;;;;35.95;21.67;;;2.20;99.90;;;;;;5068717;28;20211;-62
2022/12/05 02:52:27;;;;;;;33.97;19.50;;;2.20;99.90;;;;;;5070852;28;20315;-62
2022/12/05 02:54:55;;;;;;;39.90;20.35;;;2.20;99.90;;;;;;5070561;28;20221;-61
2022/12/05 02:57:23;;;;;;;37.28;20.63;;;2.20;99.90;;;;;;5071289;28;20205;-61
2022/12/05 02:59:50;;;;;;;42.75;21.17;;;2.20;99.90;;;;;;5072255;28;20206;-62
2022/12/05 03:02:24;;;;;;;34.35;20.27;;;2.20;99.90;;;;;;5070218;28;20222;-61
2022/12/05 03:04:54;;;;;;;37.55;21.60;;;2.20;99.90;;;;;;5058675;28;20197;-61
2022/12/05 03:07:26;;;;;;;33.67;20.65;;;2.30;99.90;;;;;;5060069;28;20209;-61
2022/12/05 03:09:58;;;;;;;36.20;20.42;;;2.30;99.90;;;;;;5059139;28;20186;-62
2022/12/05 03:12:29;;;;;;;34.95;21.27;;;2.30;99.90;;;;;;5055209;28;20229;-61
2022/12/05 03:14:58;;;;;;;41.25;19.33;;;2.30;99.90;;;;;;5054596;28;20205;-62
2022/12/05 03:17:30;;;;;;;31.65;19.90;;;2.30;99.90;;;;;;5055079;28;20205;-60
2022/12/05 03:20:05;;;;;;;39.45;18.92;;;2.30;99.90;;;;;;5055200;28;20182;-61
2022/12/05 03:22:36;;;;;;;31.02;19.25;;;2.30;99.90;;;;;;5058253;28;20704;-61
2022/12/05 03:25:04;;;;;;;35.22;19.23;;;2.30;99.90;;;;;;5056794;28;20183;-61
2022/12/05 03:27:40;;;;;;;35.78;20.00;;;2.30;99.90;;;;;;5056599;28;20209;-61
2022/12/05 03:30:09;;;;;;;38.50;21.13;;;2.30;99.90;;;;;;5056926;28;20185;-61
2022/12/05 03:32:40;;;;;;;35.90;18.70;;;2.30;99.90;;;;;;5056662;28;20236;-61
2022/12/05 03:35:14;;;;;;;34.30;19.73;;;2.30;99.90;;;;;;5057653;28;20210;-60
2022/12/05 03:37:47;;;;;;;32.30;18.42;;;2.20;99.90;;;;;;5056991;28;20185;-60
2022/12/05 03:40:29;;;;;;;33.58;18.23;;;2.20;99.90;;;;;;5061898;28;20217;-61
2022/12/05 03:43:01;;;;;;;32.55;18.40;;;2.30;99.90;;;;;;5058932;28;20221;-62
2022/12/05 03:45:34;;;;;;;30.60;18.60;;;2.20;99.90;;;;;;5062632;28;20240;-62
2022/12/05 03:48:10;;;;;;;29.55;18.85;;;2.20;99.90;;;;;;5062276;28;20194;-61
2022/12/05 03:50:41;;;;;;;34.55;19.15;;;2.20;99.90;;;;;;5063917;28;20185;-61
2022/12/05 03:53:13;;;;;;;32.70;18.73;;;2.30;99.90;;;;;;5062325;28;20221;-60
2022/12/05 03:55:42;;;;;;;35.95;18.13;;;2.30;99.90;;;;;;5057275;28;20206;-61
2022/12/05 03:58:14;;;;;;;36.63;17.95;;;2.30;99.90;;;;;;5056984;28;20208;-61
2022/12/05 04:00:43;;;;;;;27.27;16.90;;;2.30;99.90;;;;;;5056798;28;20193;-62
2022/12/05 04:03:13;;;;;;;33.78;18.48;;;2.30;99.90;;;;;;5056437;28;20237;-60
2022/12/05 04:05:46;;;;;;;25.58;18.17;;;2.30;99.90;;;;;;5057234;28;20581;-60
2022/12/05 04:10:49;;;;;;;26.25;17.17;;;2.30;99.90;;;;;;5095203;28;20608;-60
2022/12/05 04:13:19;;;;;;;27.23;17.15;;;2.30;99.90;;;;;;5100685;28;20234;-61
2022/12/05 04:18:39;;;;;;;28.25;17.35;;;2.30;99.90;;;;;;5101849;28;20180;-62
2022/12/05 04:26:36;;;;;;;30.73;17.33;;;2.40;99.90;;;;;;5049730;28;20198;-59
2022/12/05 04:29:07;;;;;;;27.38;17.95;;;2.40;99.90;;;;;;5050004;28;20637;-60
2022/12/05 04:31:39;;;;;;;33.25;17.10;;;2.40;99.90;;;;;;5050002;28;20564;-60
2022/12/05 04:34:09;;;;;;;29.38;16.90;;;2.40;99.90;;;;;;5049888;28;20598;-60
2022/12/05 04:36:41;;;;;;;31.23;17.45;;;2.30;99.90;;;;;;5049902;28;20296;-60
2022/12/05 04:39:12;;;;;;;27.95;16.95;;;2.40;99.90;;;;;;5050243;28;20213;-60
2022/12/05 04:41:44;;;;;;;27.10;16.75;;;2.40;99.90;;;;;;5050191;28;20189;-61
2022/12/05 04:44:15;;;;;;;28.80;16.17;;;2.40;99.90;;;;;;5050011;28;20231;-60
2022/12/05 04:46:44;;;;;;;34.65;18.48;;;2.40;99.90;;;;;;5050070;28;20198;-59
2022/12/05 04:49:16;;;;;;;31.25;18.27;;;2.30;99.90;;;;;;5049624;28;20718;-59
2022/12/05 04:51:48;;;;;;;29.15;16.92;;;2.30;99.90;;;;;;5050047;28;20186;-61
2022/12/05 04:54:19;;;;;;;26.50;15.57;;;2.30;99.90;;;;;;5049947;28;20225;-59
2022/12/05 04:56:52;;;;;;;29.38;16.00;;;2.30;99.90;;;;;;5049735;28;20195;-59
2022/12/05 04:59:19;;;;;;;23.88;15.38;;;2.40;99.90;;;;;;5049560;28;20661;-59
2022/12/05 05:01:51;;;;;;;28.30;15.57;;;2.40;99.90;;;;;;5049355;28;20206;-61
2022/12/05 05:04:25;;;;;;;23.10;15.45;;;2.30;99.90;;;;;;5049510;28;20691;-61
2022/12/05 05:06:53;;;;;;;26.40;15.77;;;2.30;99.90;;;;;;5049634;28;20186;-60
2022/12/05 05:09:19;;;;;;;26.40;15.65;;;2.30;99.90;;;;;;5049662;28;20225;-61
2022/12/05 05:11:48;;;;;;;26.50;17.20;;;2.30;99.90;;;;;;5050045;28;20206;-60
2022/12/05 05:14:14;;;;;;;24.90;15.30;;;2.30;99.90;;;;;;5049754;28;20217;-61
2022/12/05 05:16:43;;;;;;;28.58;15.68;;;2.30;99.90;;;;;;5049811;28;20206;-61
2022/12/05 05:19:10;;;;;;;25.52;16.90;;;2.30;99.90;;;;;;5049829;28;20284;-60
2022/12/05 05:21:39;;;;;;;29.90;16.17;;;2.30;99.90;;;;;;5038722;28;20206;-60
2022/12/05 05:24:08;;;;;;;25.35;16.50;;;2.30;99.90;;;;;;5036852;28;20760;-60
2022/12/05 05:26:36;;;;;;;28.85;16.20;;;2.30;99.90;;;;;;5036218;28;20207;-61
2022/12/05 05:29:05;;;;;;;24.80;15.75;;;2.30;99.90;;;;;;5036300;28;20591;-60
2022/12/05 05:31:32;;;;;;;26.55;14.70;;;2.30;99.90;;;;;;5036357;28;20565;-60
2022/12/05 05:33:59;;;;;;;32.83;16.58;;;2.30;99.90;;;;;;5035844;28;20229;-61
2022/12/05 05:36:27;;;;;;;22.92;14.48;;;2.30;99.90;;;;;;5035771;28;20202;-61
2022/12/05 05:38:55;;;;;;;22.20;14.65;;;2.30;99.90;;;;;;5036334;28;20220;-60
2022/12/05 05:41:25;;;;;;;24.50;14.90;;;2.30;99.90;;;;;;5035757;28;20207;-61
2022/12/05 05:43:52;;;;;;;27.35;15.85;;;2.30;99.90;;;;;;5035855;28;20219;-61
2022/12/05 05:46:22;;;;;;;29.42;15.05;;;2.30;99.90;;;;;;5035891;28;20204;-60
2022/12/05 05:48:49;;;;;;;25.73;15.40;;;2.30;99.90;;;;;;5036044;28;20195;-62
2022/12/05 05:51:17;;;;;;;26.85;17.10;;;2.30;99.90;;;;;;5035451;28;20213;-61
2022/12/05 05:53:45;;;;;;;23.17;16.10;;;2.30;99.90;;;;;;5035349;28;20249;-61
2022/12/05 05:56:14;;;;;;;25.70;15.60;;;2.30;99.90;;;;;;5035416;28;20211;-60
2022/12/05 05:58:41;;;;;;;24.75;14.98;;;2.30;99.90;;;;;;5035502;28;20242;-62
2022/12/05 06:01:10;;;;;;;28.55;14.98;;;2.30;99.90;;;;;;5035479;28;20226;-61
2022/12/05 06:03:39;;;;;;;27.65;15.50;;;2.30;99.90;;;;;;5034663;28;20677;-62
2022/12/05 06:06:07;;;;;;;22.23;14.25;;;2.30;99.90;;;;;;5034807;28;20398;-61
2022/12/05 06:08:37;;;;;;;29.90;16.50;;;2.30;99.90;;;;;;5035016;28;20199;-60
2022/12/05 06:11:05;;;;;;;23.83;15.38;;;2.30;99.90;;;;;;5034976;28;20235;-61
2022/12/05 06:13:33;;;;;;;22.83;15.18;;;2.30;99.90;;;;;;5034523;28;20683;-59
2022/12/05 06:16:00;;;;;;;28.63;16.70;;;2.30;99.90;;;;;;5034743;28;20199;-61
2022/12/05 06:18:26;;;;;;;19.83;12.98;;;2.30;99.90;;;;;;5034360;28;20198;-62
2022/12/05 06:20:55;;;;;;;22.27;15.27;;;2.30;99.90;;;;;;5034669;28;20291;-61
2022/12/05 06:23:23;;;;;;;25.98;16.27;;;2.30;99.90;;;;;;5033698;28;20207;-62
2022/12/05 06:25:50;;;;;;;25.00;15.75;;;2.30;99.90;;;;;;5033569;28;20327;-58
2022/12/05 06:28:18;;;;;;;23.63;14.93;;;2.30;99.90;;;;;;5036621;28;20250;-60
2022/12/05 06:30:45;;;;;;;22.33;14.77;;;2.30;99.90;;;;;;5035434;28;20226;-59
2022/12/05 06:33:12;;;;;;;22.58;15.23;;;2.30;99.90;;;;;;5035662;28;20206;-62
2022/12/05 06:35:39;;;;;;;23.63;14.90;;;2.30;99.90;;;;;;5035748;28;20225;-61
2022/12/05 06:38:08;;;;;;;20.77;13.70;;;2.30;99.90;;;;;;5036003;28;20206;-62
2022/12/05 06:40:35;;;;;;;26.02;15.73;;;2.30;99.90;;;;;;5038193;28;20203;-60
2022/12/05 06:43:01;;;;;;;32.03;14.90;;;2.30;99.90;;;;;;5021912;28;20573;-61
2022/12/05 06:45:28;;;;;;;21.67;13.02;;;2.30;99.90;;;;;;5018277;28;20257;-60
2022/12/05 06:47:55;;;;;;;22.05;14.10;;;2.30;99.90;;;;;;5039172;28;20702;-60
2022/12/05 06:50:22;;;;;;;19.98;15.15;;;2.30;99.90;;;;;;5035354;28;20711;-68
2022/12/05 06:52:50;;;;;;;25.52;14.43;;;2.30;99.90;;;;;;5037782;28;20212;-60
2022/12/05 06:55:18;;;;;;;22.50;14.77;;;2.20;99.90;;;;;;5044328;28;20579;-61
2022/12/05 06:57:45;;;;;;;19.85;14.18;;;2.20;99.90;;;;;;5037209;28;20207;-61
2022/12/05 07:02:57;;;;;;;22.90;13.15;;;2.20;99.90;;;;;;5037157;28;20210;-60
2022/12/05 07:05:24;;;;;;;17.50;12.00;;;2.20;99.90;;;;;;5034177;28;20223;-61
2022/12/05 07:07:51;;;;;;;18.73;11.52;;;2.20;99.90;;;;;;5034722;28;20212;-61
2022/12/05 07:10:19;;;;;;;16.05;11.57;;;2.20;99.90;;;;;;5035055;28;20228;-61
2022/12/05 07:12:46;;;;;;;18.42;13.10;;;2.10;99.90;;;;;;5034975;28;20199;-61
2022/12/05 07:15:12;;;;;;;18.63;12.38;;;2.10;99.90;;;;;;5033654;28;20228;-66
2022/12/05 07:17:39;;;;;;;15.20;12.20;;;2.10;99.90;;;;;;5034765;28;20207;-63
2022/12/05 07:20:09;;;;;;;17.75;13.50;;;2.10;99.90;;;;;;5034395;28;20207;-61
2022/12/05 07:22:36;;;;;;;22.33;13.13;;;2.00;99.90;;;;;;5034126;28;20202;-61
2022/12/05 07:25:04;;;;;;;15.82;12.40;;;2.10;99.90;;;;;;5033485;28;20237;-62
2022/12/05 07:27:32;;;;;;;18.75;12.38;;;2.00;99.90;;;;;;5033709;28;20291;-61
2022/12/05 07:29:59;;;;;;;19.05;11.82;;;2.00;99.90;;;;;;5033185;28;20219;-62
2022/12/05 07:32:26;;;;;;;19.67;12.93;;;2.00;99.90;;;;;;5033188;28;20577;-61
2022/12/05 07:34:53;;;;;;;18.75;12.07;;;2.00;99.90;;;;;;5033548;28;20227;-61
2022/12/05 07:37:19;;;;;;;16.00;12.38;;;2.00;99.90;;;;;;5033522;28;20308;-62
2022/12/05 07:39:46;;;;;;;18.65;13.05;;;2.00;99.90;;;;;;5033634;28;20198;-60
2022/12/05 07:42:13;;;;;;;20.40;13.98;;;2.00;99.90;;;;;;5033393;28;20674;-60
2022/12/05 07:44:41;;;;;;;18.38;11.93;;;2.10;99.90;;;;;;5034405;28;20817;-61
2022/12/05 07:47:08;;;;;;;17.05;11.52;;;2.10;99.90;;;;;;5035480;28;20648;-61
2022/12/05 07:49:35;;;;;;;14.98;10.77;;;2.10;99.90;;;;;;5034968;28;20666;-59
2022/12/05 07:52:02;;;;;;;15.45;11.23;;;2.10;99.90;;;;;;5035700;28;20301;-62
2022/12/05 07:54:29;;;;;;;16.83;12.25;;;2.10;99.90;;;;;;5034448;28;20250;-61
2022/12/05 07:56:56;;;;;;;18.58;12.00;;;2.10;99.90;;;;;;5033776;28;20210;-61
2022/12/05 07:59:22;;;;;;;18.02;12.80;;;2.20;99.90;;;;;;5034162;28;20207;-63
2022/12/05 08:01:50;;;;;;;16.17;11.32;;;2.20;99.90;;;;;;5036077;28;20206;-61
2022/12/05 08:04:17;;;;;;;20.67;11.48;;;2.20;99.90;;;;;;5034242;28;20219;-62
2022/12/05 08:06:44;;;;;;;17.08;12.13;;;2.30;99.90;;;;;;5034500;28;20207;-61
2022/12/05 08:09:11;;;;;;;20.38;12.30;;;2.30;99.90;;;;;;5033650;28;20212;-62
2022/12/05 08:11:38;;;;;;;18.40;13.10;;;2.30;99.90;;;;;;5033093;28;20226;-59
2022/12/05 08:14:06;;;;;;;18.55;12.30;;;2.30;99.90;;;;;;5034148;28;20227;-61
2022/12/05 08:16:33;;;;;;;16.67;11.85;;;2.30;99.90;;;;;;5033863;28;20206;-61
2022/12/05 08:19:03;;;;;;;16.25;10.88;;;2.30;99.90;;;;;;5033443;28;20202;-62
2022/12/05 08:21:31;;;;;;;17.10;12.43;;;2.30;99.90;;;;;;5033043;28;20252;-60
2022/12/05 08:23:58;;;;;;;14.25;12.05;;;2.30;99.90;;;;;;5032988;28;20226;-61
2022/12/05 08:26:26;;;;;;;15.48;12.05;;;2.20;99.90;;;;;;5033553;28;20207;-60
2022/12/05 08:28:55;;;;;;;21.48;11.13;;;2.30;99.90;;;;;;5033028;28;20652;-61
2022/12/05 08:31:23;;;;;;;14.15;10.60;;;2.30;99.90;;;;;;5032636;28;20918;-60
2022/12/05 08:33:51;;;;;;;19.02;13.30;;;2.30;99.90;;;;;;5033524;28;20226;-61
2022/12/05 08:36:19;;;;;;;14.90;11.98;;;2.30;99.90;;;;;;5032905;28;20286;-60
2022/12/05 08:38:46;;;;;;;13.20;11.07;;;2.30;99.90;;;;;;5033358;28;20204;-61
2022/12/05 08:41:15;;;;;;;18.73;11.60;;;2.30;99.90;;;;;;5033407;28;20574;-61
2022/12/05 08:43:42;;;;;;;17.00;12.32;;;2.30;99.90;;;;;;5032822;28;20234;-60
2022/12/05 08:46:10;;;;;;;17.25;11.55;;;2.30;99.90;;;;;;5033228;28;20206;-62
2022/12/05 08:48:37;;;;;;;16.23;10.15;;;2.30;99.90;;;;;;5032984;28;20211;-62
2022/12/05 08:51:05;;;;;;;17.95;11.25;;;2.30;99.90;;;;;;5032451;28;20221;-61
2022/12/05 08:53:34;;;;;;;14.73;10.40;;;2.30;99.90;;;;;;5032465;28;20219;-62
2022/12/05 08:56:02;;;;;;;13.70;10.43;;;2.30;99.90;;;;;;5034243;28;20206;-62
2022/12/05 08:58:30;;;;;;;17.83;12.07;;;2.30;99.90;;;;;;5036908;28;20194;-61
2022/12/05 09:01:04;;;;;;;14.23;10.93;;;2.30;99.90;;;;;;5036431;28;20199;-61
2022/12/05 09:03:30;;;;;;;16.77;11.60;;;2.30;99.90;;;;;;5035809;28;20198;-61
2022/12/05 09:06:05;;;;;;;17.13;13.07;;;2.30;99.90;;;;;;5036118;28;20203;-60
2022/12/05 09:08:33;;;;;;;13.98;11.32;;;2.40;99.90;;;;;;5036607;28;20246;-60
2022/12/05 09:11:04;;;;;;;14.95;11.98;;;2.50;99.90;;;;;;5035955;28;20225;-60
2022/12/05 09:13:30;;;;;;;16.25;10.73;;;2.50;99.90;;;;;;5036426;28;20194;-61
2022/12/05 09:15:57;;;;;;;16.02;11.73;;;2.60;99.90;;;;;;5035740;28;20202;-60
2022/12/05 09:18:24;;;;;;;16.95;11.60;;;2.70;99.90;;;;;;5035793;28;20678;-61
2022/12/05 09:20:51;;;;;;;12.63;10.05;;;2.70;99.90;;;;;;5035689;28;20210;-60
2022/12/05 09:23:17;;;;;;;14.65;10.85;;;2.70;99.90;;;;;;5035737;28;20300;-60
2022/12/05 09:25:54;;;;;;;16.55;11.18;;;2.70;99.90;;;;;;5035386;28;20241;-62
2022/12/05 09:28:21;;;;;;;13.00;10.18;;;2.60;99.90;;;;;;5037355;28;20206;-61
2022/12/05 09:30:56;;;;;;;11.65;9.35;;;2.70;99.90;;;;;;5035226;28;20230;-62
2022/12/05 09:33:23;;;;;;;13.93;9.98;;;2.70;99.90;;;;;;5038894;28;20193;-63
2022/12/05 09:35:50;;;;;;;15.50;9.40;;;2.70;99.90;;;;;;5035210;28;20205;-61
2022/12/05 09:38:16;;;;;;;12.75;11.07;;;2.70;99.90;;;;;;5035623;28;20213;-61
2022/12/05 09:40:43;;;;;;;11.77;9.35;;;2.70;99.90;;;;;;5035389;28;20207;-61
2022/12/05 09:43:26;;;;;;;14.27;11.05;;;2.70;99.90;;;;;;5035186;28;20567;-61
2022/12/05 09:46:06;;;;;;;12.43;9.75;;;2.80;99.90;;;;;;5035526;28;20196;-62
2022/12/05 09:48:33;;;;;;;13.57;9.15;;;2.80;99.90;;;;;;5035226;28;20195;-62
2022/12/05 09:51:02;;;;;;;12.85;10.38;;;2.80;99.90;;;;;;5035643;28;20224;-61
2022/12/05 09:53:32;;;;;;;11.95;9.60;;;2.70;99.90;;;;;;5035132;28;20252;-60
2022/12/05 09:56:04;;;;;;;11.68;9.18;;;2.70;99.90;;;;;;5034358;28;20299;-59
2022/12/05 09:58:43;;;;;;;12.05;9.73;;;2.70;99.90;;;;;;5037172;28;20215;-61
2022/12/05 10:01:32;;;;;;;12.27;9.02;;;2.70;99.90;;;;;;5034772;28;20187;-62
2022/12/05 10:04:16;;;;;;;12.75;8.65;;;2.70;99.90;;;;;;5035096;28;20227;-62
2022/12/05 10:06:50;;;;;;;12.77;9.73;;;2.80;99.90;;;;;;5034828;28;20234;-61
2022/12/05 10:09:34;;;;;;;12.07;9.65;;;2.80;99.90;;;;;;5035028;28;20188;-63
2022/12/05 10:12:11;;;;;;;13.52;9.13;;;2.80;99.90;;;;;;5034658;28;20253;-62
2022/12/05 10:14:50;;;;;;;11.98;8.68;;;2.90;99.90;;;;;;5035232;28;20234;-62
2022/12/05 10:17:26;;;;;;;9.50;8.50;;;2.90;99.90;;;;;;5034539;28;20192;-61
2022/12/05 10:19:57;;;;;;;13.20;8.65;;;2.90;99.90;;;;;;5034496;28;20226;-62
2022/12/05 10:22:30;;;;;;;9.70;8.70;;;2.90;99.90;;;;;;5034741;28;20530;-61
2022/12/05 10:25:03;;;;;;;15.40;9.27;;;2.90;99.90;;;;;;5034036;28;20232;-62
2022/12/05 10:27:36;;;;;;;10.80;8.75;;;2.90;99.90;;;;;;5034831;28;20198;-61
2022/12/05 10:30:12;;;;;;;14.07;9.00;;;2.90;99.90;;;;;;5054497;22;20316;-61
2022/12/05 10:32:44;;;;;;;13.57;9.00;;;2.90;99.90;;;;;;5057211;28;20575;-60
2022/12/05 10:35:17;;;;;;;10.85;8.52;;;3.00;99.90;;;;;;5056432;28;20199;-61
2022/12/05 10:37:48;;;;;;;11.75;9.45;;;3.10;99.90;;;;;;5055965;28;20567;-60
2022/12/05 10:40:16;;;;;;;10.50;8.05;;;3.20;99.90;;;;;;5055205;28;20230;-62
2022/12/05 10:42:43;;;;;;;10.55;7.88;;;3.20;99.90;;;;;;5056662;28;20369;-62
2022/12/05 10:45:18;;;;;;;9.65;7.53;;;3.20;99.90;;;;;;5054652;28;20675;-61
2022/12/05 10:47:46;;;;;;;9.40;7.68;;;3.10;99.90;;;;;;5055388;28;20191;-62
2022/12/05 10:50:31;;;;;;;8.80;7.55;;;3.10;99.90;;;;;;5057554;28;20227;-62
2022/12/05 10:53:00;;;;;;;8.63;7.50;;;3.10;99.90;;;;;;5056296;28;20185;-61
2022/12/05 10:55:31;;;;;;;7.93;6.78;;;3.10;99.90;;;;;;5057287;28;20211;-61
2022/12/05 10:58:11;;;;;;;7.38;6.43;;;3.10;99.90;;;;;;5058350;28;20196;-63
2022/12/05 11:00:45;;;;;;;10.25;7.13;;;3.00;99.90;;;;;;5057467;28;20230;-60
2022/12/05 11:03:25;;;;;;;9.38;6.80;;;3.00;99.90;;;;;;5057467;28;20562;-61
2022/12/05 11:05:53;;;;;;;11.30;7.47;;;3.00;99.90;;;;;;5057386;28;20191;-60
2022/12/05 11:08:25;;;;;;;9.30;7.03;;;3.00;99.90;;;;;;5057248;28;20583;-60
2022/12/05 11:11:02;;;;;;;8.63;7.20;;;3.10;99.90;;;;;;5055357;28;20224;-60
2022/12/05 11:13:29;;;;;;;10.80;8.00;;;3.10;99.90;;;;;;5055491;28;20196;-61
2022/12/05 11:15:57;;;;;;;9.23;7.20;;;3.10;99.90;;;;;;5057275;28;20208;-61
2022/12/05 11:18:30;;;;;;;12.43;8.15;;;3.10;99.90;;;;;;5055719;28;20585;-59
2022/12/05 11:21:09;;;;;;;10.60;6.97;;;3.20;99.90;;;;;;5055868;28;20228;-61
2022/12/05 11:23:36;;;;;;;8.95;6.97;;;3.20;99.90;;;;;;5055674;28;20190;-60
2022/12/05 11:26:03;;;;;;;8.93;7.65;;;3.20;99.90;;;;;;5055759;28;20200;-60
2022/12/05 11:28:33;;;;;;;8.57;7.22;;;3.20;99.90;;;;;;5053792;28;20218;-62
2022/12/05 11:31:03;;;;;;;8.23;7.28;;;3.20;99.90;;;;;;5053089;28;20232;-62
2022/12/05 11:33:31;;;;;;;8.43;7.53;;;3.20;99.90;;;;;;5053148;28;20189;-61
2022/12/05 11:36:04;;;;;;;9.52;8.07;;;3.20;99.90;;;;;;5054152;28;20692;-61
2022/12/05 11:38:33;;;;;;;7.30;6.53;;;3.30;99.90;;;;;;5054270;28;20550;-62
2022/12/05 11:41:14;;;;;;;8.48;6.35;;;3.30;99.90;;;;;;5054393;28;20224;-62
2022/12/05 11:44:06;;;;;;;9.05;6.60;;;3.30;99.90;;;;;;5054627;28;20194;-61
2022/12/05 11:46:44;;;;;;;9.95;6.65;;;3.30;99.90;;;;;;5054517;28;20185;-61
2022/12/05 11:49:36;;;;;;;11.70;7.65;;;3.40;99.90;;;;;;5054182;28;20207;-62
2022/12/05 11:52:13;;;;;;;9.90;7.55;;;3.40;99.90;;;;;;5059637;28;20218;-62
2022/12/05 11:55:02;;;;;;;11.18;7.38;;;3.60;99.90;;;;;;5060811;28;20246;-61
2022/12/05 11:57:42;;;;;;;8.75;7.65;;;3.60;99.90;;;;;;5061547;28;20324;-62
2022/12/05 12:00:21;;;;;;;8.63;6.90;;;3.70;99.90;;;;;;5060865;28;20229;-61
2022/12/05 12:03:23;;;;;;;8.50;6.47;;;3.70;99.90;;;;;;5062701;28;20184;-62
2022/12/05 12:06:02;;;;;;;11.50;6.88;;;3.70;99.90;;;;;;5060910;28;20679;-62
2022/12/05 12:08:31;;;;;;;9.40;7.05;;;3.60;99.90;;;;;;5056062;28;20190;-60
2022/12/05 12:11:08;;;;;;;9.60;8.18;;;3.60;99.90;;;;;;5053823;28;20452;-61
2022/12/05 12:13:48;;;;;;;9.02;7.05;;;3.60;99.90;;;;;;5054994;28;20210;-61
2022/12/05 12:16:20;;;;;;;8.52;7.22;;;3.60;99.90;;;;;;5054035;28;20202;-61
2022/12/05 12:19:09;;;;;;;9.95;6.95;;;3.60;99.90;;;;;;5053207;28;20542;-62
2022/12/05 12:21:51;;;;;;;10.35;6.90;;;3.50;99.90;;;;;;5053103;28;20223;-62
2022/12/05 12:24:27;;;;;;;9.80;7.55;;;3.50;99.90;;;;;;5053529;28;20238;-62
2022/12/05 12:27:03;;;;;;;10.40;7.22;;;3.50;99.90;;;;;;5054049;28;20187;-62
2022/12/05 12:29:45;;;;;;;8.38;5.80;;;3.50;99.90;;;;;;5051939;28;20217;-61
2022/12/05 12:32:25;;;;;;;7.72;6.68;;;3.40;99.90;;;;;;5056298;28;20693;-61
2022/12/05 12:35:19;;;;;;;9.05;7.13;;;3.30;99.90;;;;;;5057273;28;20186;-62
2022/12/05 12:37:57;;;;;;;8.35;7.13;;;3.30;99.90;;;;;;5057241;28;20527;-60
2022/12/05 12:40:34;;;;;;;9.13;7.70;;;3.30;99.90;;;;;;5056497;28;20229;-60
2022/12/05 12:43:07;;;;;;;9.73;6.82;;;3.30;99.90;;;;;;5055984;28;20583;-62
2022/12/05 12:45:55;;;;;;;10.80;7.60;;;3.30;99.90;;;;;;5056344;28;20760;-61
2022/12/05 12:48:34;;;;;;;12.38;7.63;;;3.20;99.90;;;;;;5056668;28;20188;-59
2022/12/05 12:51:03;;;;;;;10.90;6.80;;;3.20;99.90;;;;;;5056605;28;20231;-61
2022/12/05 12:53:54;;;;;;;11.02;7.45;;;3.20;99.90;;;;;;5056525;28;20587;-61
2022/12/05 12:56:35;;;;;;;10.18;7.30;;;3.10;99.90;;;;;;5057056;28;20357;-60
2022/12/05 12:59:17;;;;;;;11.27;7.55;;;3.10;99.90;;;;;;5058596;28;20538;-60
2022/12/05 13:01:51;;;;;;;10.80;7.82;;;3.00;99.90;;;;;;5056570;28;20222;-61
2022/12/05 13:04:23;;;;;;;10.85;8.23;;;3.00;99.90;;;;;;5056709;28;20195;-61
2022/12/05 13:06:55;;;;;;;9.20;7.25;;;3.00;99.90;;;;;;5056921;28;20388;-61
2022/12/05 13:09:30;;;;;;;9.45;7.03;;;3.00;99.90;;;;;;5056665;28;20189;-60
2022/12/05 13:12:01;;;;;;;10.50;8.32;;;3.00;99.90;;;;;;5055944;28;20517;-60
2022/12/05 13:14:30;;;;;;;9.35;7.95;;;3.00;99.90;;;;;;5056248;28;20188;-62